Heloise — 3FLA7 — position and weather

sailwx.info

Track history (hours):
 
Tides and Currents Weather Stations Pressure Air Temp Water Temp Dewpoint Dewpoint Depression Visibility Wind Speed Wind Dir Waves Ship Positions

Heloise

Last reported at 2014-Aug-21 19:21 UTC. Time now 2014-Aug-29 16:25 UTC.
Position N 36°38' E 015°33'.

Length 186 m; draft 8.5 m.

Type: Cargo ship. MMSI: 352302000.

Date/timePositionNaut miles runAvg speedWind from/ knotsBaromVisibWave heightAir tempDewpointWater temp
2014-Aug-21 19:21N 36°38' E 015°33'1312.5
2014-Aug-21 18:20N 36°35' E 015°18'1113.9
2014-Aug-21 17:33N 36°35' E 015°04'1413.6
2014-Aug-21 16:33N 36°35' E 014°47'1413.7
2014-Aug-21 15:33N 36°35' E 014°30'1413.5
2014-Aug-21 14:33N 36°35' E 014°13'1313.4
2014-Aug-21 13:33N 36°35' E 013°57'1313.2
2014-Aug-21 12:33N 36°35' E 013°40'1313.3
2014-Aug-21 11:33N 36°35' E 013°24'1413.5
2014-Aug-21 10:34N 36°35' E 013°07'1313.3
2014-Aug-21 09:33N 36°39' E 012°51'1313.2
2014-Aug-21 08:33N 36°45' E 012°37'1313.0
2014-Aug-21 07:33N 36°51' E 012°22'1313.3
2014-Aug-21 06:33N 36°58' E 012°08'1613.3
2014-Aug-21 05:21N 37°05' E 011°50'6513.1
2014-Aug-21 00:24N 37°35' E 010°37'1213.6
2014-Aug-20 23:32N 37°35' E 010°22'2814.0
2014-Aug-20 21:33N 37°34' E 009°47'1313.5
2014-Aug-20 20:33N 37°32' E 009°30'1413.7
2014-Aug-20 19:33N 37°27' E 009°14'1313.5
2014-Aug-20 18:33N 37°22' E 008°59'1713.4
2014-Aug-20 17:17N 37°15' E 008°39'22113.1
2014-Aug-20 00:28N 37°20' E 004°01'46011.4
2014-Aug-18 08:12N 35°60' W 005°23'  
2014-Aug-15 03:10N 39°31' W 025°39'9113.2
2014-Aug-14 20:17N 39°57' W 027°32'1313.0
2014-Aug-14 19:15N 40°01' W 027°49'912.8
2014-Aug-14 18:33N 40°03' W 028°00'1313.3
2014-Aug-14 17:33N 40°07' W 028°17'1313.3
2014-Aug-14 16:33N 40°11' W 028°33'1313.4
2014-Aug-14 15:34N 40°14' W 028°50'1413.5
2014-Aug-14 14:33N 40°18' W 029°07'1513.6
2014-Aug-14 13:29N 40°22' W 029°26'1213.3
2014-Aug-14 12:33N 40°26' W 029°41'1513.3
2014-Aug-14 11:26N 40°30' W 029°60'  
Track history (hours):
 
Tides and Currents Weather Stations Pressure Air Temp Water Temp Dewpoint Dewpoint Depression Visibility Wind Speed Wind Dir Waves Ship Positions

Heloise

Last reported at 2014-Aug-21 19:21 UTC. Time now 2014-Aug-29 16:25 UTC.
Position N 36°38' E 015°33'.

Length 186 m; draft 8.5 m.

Type: Cargo ship. MMSI: 352302000.

Date/timePositionNaut miles runAvg speedWind from/ knotsBaromVisibWave heightAir tempDewpointWater temp
2014-Aug-21 19:21N 36°38' E 015°33'1312.5
2014-Aug-21 18:20N 36°35' E 015°18'1113.9
2014-Aug-21 17:33N 36°35' E 015°04'1413.6
2014-Aug-21 16:33N 36°35' E 014°47'1413.7
2014-Aug-21 15:33N 36°35' E 014°30'1413.5
2014-Aug-21 14:33N 36°35' E 014°13'1313.4
2014-Aug-21 13:33N 36°35' E 013°57'1313.2
2014-Aug-21 12:33N 36°35' E 013°40'1313.3
2014-Aug-21 11:33N 36°35' E 013°24'1413.5
2014-Aug-21 10:34N 36°35' E 013°07'1313.3
2014-Aug-21 09:33N 36°39' E 012°51'1313.2
2014-Aug-21 08:33N 36°45' E 012°37'1313.0
2014-Aug-21 07:33N 36°51' E 012°22'1313.3
2014-Aug-21 06:33N 36°58' E 012°08'1613.3
2014-Aug-21 05:21N 37°05' E 011°50'6513.1
2014-Aug-21 00:24N 37°35' E 010°37'1213.6
2014-Aug-20 23:32N 37°35' E 010°22'2814.0
2014-Aug-20 21:33N 37°34' E 009°47'1313.5
2014-Aug-20 20:33N 37°32' E 009°30'1413.7
2014-Aug-20 19:33N 37°27' E 009°14'1313.5
2014-Aug-20 18:33N 37°22' E 008°59'1713.4
2014-Aug-20 17:17N 37°15' E 008°39'22113.1
2014-Aug-20 00:28N 37°20' E 004°01'46011.4
2014-Aug-18 08:12N 35°60' W 005°23'  
2014-Aug-15 03:10N 39°31' W 025°39'9113.2
2014-Aug-14 20:17N 39°57' W 027°32'1313.0
2014-Aug-14 19:15N 40°01' W 027°49'912.8
2014-Aug-14 18:33N 40°03' W 028°00'1313.3
2014-Aug-14 17:33N 40°07' W 028°17'1313.3
2014-Aug-14 16:33N 40°11' W 028°33'1313.4
2014-Aug-14 15:34N 40°14' W 028°50'1413.5
2014-Aug-14 14:33N 40°18' W 029°07'1513.6
2014-Aug-14 13:29N 40°22' W 029°26'1213.3
2014-Aug-14 12:33N 40°26' W 029°41'1513.3
2014-Aug-14 11:26N 40°30' W 029°60'  

Dump ship's entire track history